Flight Track Log - Related Links

Times and Time Zones

All times are in EDT time to prevent confusion due to time zone crossing. See the SWA3421 flight status page for this flight to view local times or setup timezone preferences in your user account.

Time Position Orientation Groundspeed Altitude Reporting Facility
EDT Latitude Longitude Course Direction KTS MPH feet Rate Location/Type
Fri 11:36:55 AM 40.8000 -73.8667 346° North 166 191 1,300  Level New York TRACON
Fri 11:37:55 AM 40.8500 -73.8833 346° North 220 253 3,700 2,850 Climbing New York TRACON
Fri 11:38:55 AM 40.9167 -73.9000 349° North 236 272 7,000 2,947 Climbing New York TRACON
Fri 11:39:49 AM 40.9167 -73.9667 270° West 250 288 9,300 2,632 Climbing New York TRACON
Fri 11:40:49 AM 40.9000 -74.0667 258° West 290 334 12,000 2,628 Climbing New York TRACON
Fri 11:41:50 AM 40.8667 -74.1833 249° West 344 396 14,600 2,550 Climbing New York TRACON
Fri 11:42:49 AM 40.8500 -74.3167 261° West 367 422 17,100 1,210 Climbing New York TRACON
Fri 11:43:49 AM 40.8167 -74.4500 252° West 361 415 17,000 -50 Descending New York TRACON
Fri 11:44:49 AM 40.8000 -74.5667 259° West 357 411 17,000  Level New York TRACON
Fri 11:45:43 AM 40.7697 -74.6811 251° West 353 406 17,000 54 Level New York Center
Fri 11:46:40 AM 40.7428 -74.8056 254° West 359 413 17,100 1,322 Climbing New York Center
Fri 11:47:41 AM 40.7153 -74.9353 254° West 359 413 19,600 2,390 Climbing New York Center
Fri 11:48:43 AM 40.6858 -75.0622 253° West 359 413 22,000 2,213 Climbing New York Center
Fri 11:49:43 AM 40.6331 -75.1900 241° Southwest 370 426 24,100 2,339 Climbing New York Center
Fri 11:50:41 AM 40.5764 -75.3122 239° Southwest 385 443 26,600 1,983 Climbing New York Center
Fri 11:51:41 AM 40.5194 -75.4367 239° Southwest 396 456 28,000 694 Climbing New York Center
Fri 11:52:42 AM 40.4644 -75.5586 239° Southwest 396 456 28,000  Level New York Center
Fri 11:53:41 AM 40.4094 -75.6772 239° Southwest 396 456 28,000  Level New York Center
Fri 11:54:41 AM 40.3544 -75.7989 239° Southwest 391 450 28,000  Level New York Center
Fri 11:55:41 AM 40.2997 -75.9092 237° Southwest 391 450 28,000  Level New York Center
Fri 11:56:42 AM 40.2425 -76.0244 237° Southwest 396 456 28,000  Level New York Center
Fri 11:57:42 AM 40.1847 -76.1478 239° Southwest 396 456 28,000  Level New York Center
Fri 11:58:41 AM 40.1292 -76.2683 239° Southwest 396 456 28,000  Level New York Center
Fri 11:59:42 AM 40.0736 -76.3861 238° Southwest 396 456 28,000  Level New York Center
Fri 12:00:43 PM 40.0178 -76.5092 239° Southwest 396 456 28,000  Level New York Center
Fri 12:01:42 PM 39.9619 -76.6264 238° Southwest 390 449 28,000  Level New York Center
Fri 12:02:42 PM 39.9058 -76.7489 239° Southwest 390 449 28,000  Level New York Center
Fri 12:03:41 PM 39.8494 -76.8714 239° Southwest 390 449 28,000  Level New York Center
Fri 12:05:47 PM 39.7267 -77.1294 238° Southwest 373 429 28,000  Level Washington Center
Fri 12:06:45 PM 39.6689 -77.2522 239° Southwest 388 447 28,000  Level Washington Center
Fri 12:07:45 PM 39.6131 -77.3694 238° Southwest 393 452 28,000  Level Washington Center
Fri 12:08:47 PM 39.5550 -77.4917 238° Southwest 393 452 28,000  Level Washington Center
Fri 12:09:47 PM 39.4989 -77.6114 239° Southwest 393 452 28,000  Level Washington Center
Fri 12:10:46 PM 39.4406 -77.7333 238° Southwest 398 458 28,000  Level Washington Center
Fri 12:11:47 PM 39.3842 -77.8525 239° Southwest 398 458 28,000  Level Washington Center
Fri 12:12:47 PM 39.3358 -77.9772 243° Southwest 398 458 28,000  Level Washington Center
Fri 12:13:45 PM 39.2853 -78.1014 242° Southwest 393 452 28,000  Level Washington Center
Fri 12:14:45 PM 39.2369 -78.2231 243° Southwest 388 447 28,000  Level Washington Center
Fri 12:15:46 PM 39.1883 -78.3472 243° Southwest 388 447 28,000  Level Washington Center
Fri 12:16:47 PM 39.1439 -78.4581 243° Southwest 388 447 28,000  Level Washington Center
Fri 12:17:47 PM 39.0953 -78.5792 243° Southwest 383 441 28,000  Level Washington Center
Fri 12:18:45 PM 39.0464 -78.7000 243° Southwest 383 441 28,000  Level Washington Center
Fri 12:19:46 PM 38.9972 -78.8208 242° Southwest 383 441 28,000  Level Washington Center
Fri 12:20:46 PM 38.9481 -78.9386 242° Southwest 383 441 28,000  Level Washington Center
Fri 12:21:47 PM 38.8989 -79.0619 243° Southwest 383 441 28,000  Level Washington Center
Fri 12:22:47 PM 38.8494 -79.1822 242° Southwest 383 441 28,000  Level Washington Center
Fri 12:23:45 PM 38.8225 -79.3142 255° West 383 441 28,000  Level Washington Center
Fri 12:24:46 PM 38.7994 -79.4489 258° West 383 441 28,000  Level Washington Center
Fri 12:25:46 PM 38.7719 -79.5858 256° West 388 447 28,000  Level Washington Center
Fri 12:26:47 PM 38.7461 -79.7336 257° West 394 453 28,000  Level Washington Center
Fri 12:27:47 PM 38.7228 -79.8681 257° West 394 453 28,000  Level Washington Center
Fri 12:28:45 PM 38.6969 -80.0022 256° West 394 453 28,000  Level Washington Center
Fri 12:29:45 PM 38.6736 -80.1231 256° West 394 453 28,000  Level Washington Center
Fri 12:30:38 PM 38.6467 -80.2467 254° West 388 447 28,000  Level Indianapolis Center
Fri 12:31:39 PM 38.6231 -80.3797 257° West 385 443 28,000  Level Indianapolis Center
Fri 12:33:00 PM 38.5807 -80.5452 252° West  Level FlightAware Approximate
Fri 12:33:43 PM 38.5717 -80.6475 252° West 388 447 28,000  Level Indianapolis Center
Fri 12:34:45 PM 38.5458 -80.7808 256° West 387 445 28,000  Level Indianapolis Center
Fri 12:35:47 PM 38.5194 -80.9161 256° West 391 450 28,000  Level Indianapolis Center
Fri 12:36:48 PM 38.4933 -81.0517 256° West 391 450 28,000  Level Indianapolis Center
Fri 12:37:50 PM 38.4669 -81.1858 256° West 388 447 28,000  Level Indianapolis Center
Fri 12:38:52 PM 38.4347 -81.3489 256° West 391 450 28,000  Level Indianapolis Center
Fri 12:39:54 PM 38.4069 -81.4844 255° West 391 450 28,000  Level Indianapolis Center
Fri 12:40:56 PM 38.3803 -81.6194 256° West 388 447 28,000  Level Indianapolis Center
Fri 12:41:57 PM 38.3542 -81.7522 256° West 385 443 28,000  Level Indianapolis Center
Fri 12:42:59 PM 38.3194 -81.8789 251° West 380 437 28,000  Level Indianapolis Center
Fri 12:44:01 PM 38.2842 -82.0058 251° West 379 436 28,000  Level Indianapolis Center
Fri 12:45:03 PM 38.2492 -82.1325 251° West 379 436 28,000  Level Indianapolis Center
Fri 12:46:05 PM 38.2125 -82.2594 250° West 381 438 28,000  Level Indianapolis Center
Fri 12:47:07 PM 38.1764 -82.3864 250° West 381 438 28,000  Level Indianapolis Center
Fri 12:48:09 PM 38.1267 -82.5161 244° Southwest 378 435 28,000  Level Indianapolis Center
Fri 12:49:10 PM 38.0778 -82.6353 243° Southwest 379 436 28,000  Level Indianapolis Center
Fri 12:50:12 PM 38.0206 -82.7744 242° Southwest 380 437 28,000  Level Indianapolis Center
Fri 12:51:14 PM 37.9736 -82.8933 243° Southwest 378 435 28,000  Level Indianapolis Center
Fri 12:52:16 PM 37.9247 -83.0114 242° Southwest 379 436 28,000  Level Indianapolis Center
Fri 12:53:18 PM 37.8758 -83.1314 243° Southwest 383 441 28,000  Level Indianapolis Center
Fri 12:54:20 PM 37.8267 -83.2500 242° Southwest 383 441 28,000  Level Indianapolis Center
Fri 12:55:22 PM 37.7644 -83.3842 240° Southwest 382 440 28,000  Level Indianapolis Center
Fri 12:56:24 PM 37.7081 -83.4981 238° Southwest 382 440 28,000  Level Indianapolis Center
Fri 12:57:26 PM 37.6519 -83.6128 238° Southwest 385 443 28,000  Level Indianapolis Center
Fri 12:58:28 PM 37.5967 -83.7250 238° Southwest 380 437 28,000  Level Indianapolis Center
Fri 12:59:30 PM 37.5397 -83.8392 238° Southwest 385 443 28,000  Level Indianapolis Center
Fri 01:00:32 PM 37.4747 -83.9722 238° Southwest 383 441 28,000  Level Indianapolis Center
Fri 01:01:34 PM 37.4167 -84.0883 238° Southwest 389 448 28,000  Level Indianapolis Center
Fri 01:02:36 PM 37.3597 -84.2031 238° Southwest 387 445 28,000  Level Indianapolis Center
Fri 01:03:38 PM 37.3039 -84.3172 238° Southwest 384 442 28,000  Level Indianapolis Center
Fri 01:04:40 PM 37.2458 -84.4319 238° Southwest 387 445 28,000  Level Indianapolis Center
Fri 01:05:42 PM 37.1778 -84.5639 237° Southwest 386 444 28,000 -435 Level Indianapolis Center
Fri 01:06:44 PM 37.1228 -84.6725 238° Southwest 376 433 27,100 -871 Descending Indianapolis Center
Fri 01:07:46 PM 37.0694 -84.7817 239° Southwest 369 425 26,200 -919 Descending Indianapolis Center
Fri 01:08:48 PM 37.0103 -84.8967 237° Southwest 390 449 25,200 -968 Descending Indianapolis Center
Fri 01:09:50 PM 36.9525 -85.0106 238° Southwest 389 448 24,200 -581 Descending Indianapolis Center
Fri 01:10:52 PM 36.8964 -85.1206 237° Southwest 379 436 24,000 -97 Descending Indianapolis Center
Fri 01:11:54 PM 36.8286 -85.2506 237° Southwest 374 430 24,000 -532 Level Indianapolis Center
Fri 01:12:56 PM 36.7753 -85.3528 237° Southwest 356 410 22,900 -1,355 Descending Indianapolis Center
Fri 01:13:58 PM 36.7269 -85.4517 239° Southwest 339 390 21,200 -1,600 Descending Indianapolis Center
Fri 01:14:56 PM 36.6842 -85.5444 240° Southwest 345 397 19,700 -1,729 Descending Memphis Center
Fri 01:15:56 PM 36.6319 -85.6483 238° Southwest 333 383 17,800 -1,750 Descending Memphis Center
Fri 01:16:56 PM 36.5875 -85.7414 239° Southwest 328 377 16,200 -1,700 Descending Memphis Center
Fri 01:17:56 PM 36.5508 -85.8236 241° Southwest 316 364 14,400 -1,600 Descending Memphis Center
Fri 01:18:56 PM 36.5147 -85.9161 244° Southwest 303 349 13,000 -1,250 Descending Memphis Center
Fri 01:19:56 PM 36.4847 -86.0081 248° West 287 330 11,900 -1,150 Descending Memphis Center
Fri 01:20:56 PM 36.4544 -86.1025 248° West 281 323 10,700 -1,300 Descending Memphis Center
Fri 01:21:56 PM 36.4303 -86.1864 250° West 269 310 9,300 -1,450 Descending Memphis Center
Fri 01:22:56 PM 36.4017 -86.2650 246° West 260 299 7,800 -1,450 Descending Memphis Center
Fri 01:23:56 PM 36.3686 -86.3389 241° Southwest 253 291 6,400 -1,400 Descending Memphis Center
Fri 01:24:56 PM 36.3375 -86.4128 242° Southwest 247 284 5,000 -1,350 Descending Memphis Center
Fri 01:25:56 PM 36.3086 -86.4811 242° Southwest 241 277 3,700 -1,400 Descending Memphis Center
Fri 01:26:56 PM 36.2792 -86.5467 241° Southwest 236 272 2,200 -900 Descending Memphis Center
Fri 01:27:56 PM 36.2433 -86.6025 231° Southwest 219 252 1,900 -100 Descending Memphis Center
Fri 01:28:56 PM 36.2067 -86.6272 209° Southwest 195 224 2,000 -300 Climbing Memphis Center
Fri 01:29:56 PM 36.1739 -86.6442 203° Southwest 150 173 1,300 -700 Descending Memphis Center
Fri 01:30:56 PM 36.1367 -86.6564 195° South 137 158 600 -700 Descending Memphis Center
Fri 01:32:00 PM 36.1167 -86.6667 287° West  Level FlightAware Approximate
Fri 01:39:00 PM 36.1245 -86.6782 287° West  Level Estimated
Fri 01:40:00 PM 36.1245 -86.6782 287° West  Level Estimated
Fri 01:41:00 PM 36.1245 -86.6782 287° West  Level Estimated
Fri 01:42:00 PM 36.1245 -86.6782 287° West  Level Estimated
Fri 01:43:00 PM 36.1245 -86.6782 287° West  Level Estimated
Fri 01:44:00 PM 36.1245 -86.6782 287° West  Level Estimated
Fri 01:45:00 PM 36.1245 -86.6782 287° West  Level Estimated
Fri 01:46:00 PM 36.1245 -86.6782 287° West  Level Estimated

Login

Don't have an account? Register now (free) for customized features, flight alerts, and more!